Bertha, Alabama
Current Conditions -  °F | °C
As of 10:53 PM on Saturday 22 Nov 2014 (Local Time) from KHEY Reporting Station
Overcast Overcast  
Wind Chill: 59°   Ceiling: 700
Heat Index: 59°   Visibility: 10mi
Dew Point: 58°   Wind: 10mph
Humidity: 96%   Direction: 90°E
Pressure: 30.07"   Gusts: NA
Location:  31.5608°N, 85.5447°W
Report Text: KHEY 230453Z AUTO 09009KT 10SM OVC007 15/14 A3007 RMK AO2 RAE39 CIG 005V011 SLP070 P0003 T01500144
Loading
Personal Weather Stations






























Interactive Weather Map New forecast layout! Learn more

10-Day Weather Forecast

Advertisements
Track Severe Weather on mobile